SCEL 221000Z 32004KT 1500 0800NW R17L/1500U R17R/1700U BCFG OVC003 08/08 Q1016 NOSIG